Terminal Aerodrome Forecast
Issued by NWS

Home | Current Version | Previous Version | Text Only | Print | Product List | Glossary On
Versions: 1 2 3 4 5 6 7 8 9 10 11 12 13 14 15 16
000
FTUS45 KABQ 041122
TAFTCC
TAF
KTCC 041122Z 0412/0512 28006KT P6SM SKC
     FM041700 VRB04KT P6SM SKC
     FM042200 14007KT P6SM FEW250
     FM050700 23006KT P6SM FEW250=

USA.gov is the U.S. government's official web portal to all federal, state and local government web resources and services.